Terminal Aerodrome Forecast
Issued by NWS Binghamton, NY

Home | Current Version | Previous Version | Text Only | Print | Product List | Glossary On
Versions: 1 2 3 4 5 6 7 8 9 10 11 12 13 14 15 16 17 18 19 20 21 22 23 24
163
FTUS41 KBGM 200543 CCA
TAFBGM
TAF COR
KBGM 200543Z 2006/2106 30009G16KT P6SM BKN050
      TEMPO 2006/2008 3SM -SHSN OVC030
     FM201000 27011KT P6SM SCT060
     FM201500 26012G18KT P6SM BKN060
     FM202200 24009KT P6SM SCT090=

USA.gov is the U.S. government's official web portal to all federal, state and local government web resources and services.